Time;durP1;ratioP1;P1;durP2;ratioP2;P2;SDS_P1;SDS_P2;PMS_P1;PMS_P2;Temp;Humidity;BMP_temperature;BMP_pressure;BME280_temperature;BME280_humidity;BME280_pressure;Samples;Min_cycle;Max_cycle;Signal;HPM_P1;HPM_P2
2021/07/02 00:01:40;;;;;;;18.65;7.68;;;15.80;99.90;;;;;;5044183;28;20049;-73
2021/07/02 00:04:07;;;;;;;14.55;6.70;;;15.90;99.90;;;;;;5044351;28;20052;-74
2021/07/02 00:06:33;;;;;;;16.33;7.43;;;15.90;99.90;;;;;;5043714;28;20029;-73
2021/07/02 00:08:58;;;;;;;15.57;7.15;;;15.90;99.90;;;;;;5044123;28;20045;-71
2021/07/02 00:11:24;;;;;;;17.00;8.35;;;15.90;99.90;;;;;;5043839;28;20026;-72
2021/07/02 00:13:50;;;;;;;14.63;6.50;;;15.90;99.90;;;;;;5044202;28;20030;-74
2021/07/02 00:16:15;;;;;;;14.52;8.02;;;15.90;99.90;;;;;;5044382;28;20064;-72
2021/07/02 00:18:41;;;;;;;22.65;6.95;;;15.80;99.90;;;;;;5044369;28;20029;-72
2021/07/02 00:21:07;;;;;;;16.33;7.47;;;15.80;99.90;;;;;;5043446;28;20040;-71
2021/07/02 00:23:32;;;;;;;11.48;6.43;;;15.80;99.90;;;;;;5043905;28;20115;-74
2021/07/02 00:25:59;;;;;;;14.95;7.53;;;15.80;99.90;;;;;;5043679;28;20367;-73
2021/07/02 00:28:24;;;;;;;11.85;6.90;;;15.70;99.90;;;;;;5043907;28;20052;-73
2021/07/02 00:30:52;;;;;;;19.15;7.85;;;15.70;99.90;;;;;;5044025;28;20025;-74
2021/07/02 00:33:18;;;;;;;19.27;7.72;;;15.70;99.90;;;;;;5043846;28;20084;-73
2021/07/02 00:35:44;;;;;;;13.77;7.85;;;15.70;99.90;;;;;;5044274;28;20029;-72
2021/07/02 00:38:10;;;;;;;24.88;8.20;;;15.60;99.90;;;;;;5047927;28;20040;-74
2021/07/02 00:40:36;;;;;;;23.98;8.40;;;15.60;99.90;;;;;;5046676;28;20021;-72
2021/07/02 00:43:03;;;;;;;20.45;7.78;;;15.60;99.90;;;;;;5046247;28;20037;-73
2021/07/02 00:45:28;;;;;;;12.82;7.15;;;15.50;99.90;;;;;;5047697;28;20029;-74
2021/07/02 00:47:54;;;;;;;23.58;7.43;;;15.60;99.90;;;;;;5045905;28;20056;-72
2021/07/02 00:50:20;;;;;;;12.13;6.30;;;15.50;99.90;;;;;;5047771;28;20470;-73
2021/07/02 00:52:46;;;;;;;11.43;6.40;;;15.50;99.90;;;;;;5045955;28;20068;-71
2021/07/02 00:55:12;;;;;;;14.88;7.97;;;15.50;99.90;;;;;;5047114;28;20049;-71
2021/07/02 00:57:38;;;;;;;18.92;8.60;;;15.50;99.90;;;;;;5047278;28;20036;-72
2021/07/02 01:00:07;;;;;;;11.52;6.40;;;15.40;99.90;;;;;;5047319;28;20041;-72
2021/07/02 01:02:33;;;;;;;20.08;8.18;;;15.40;99.90;;;;;;5046820;28;20029;-72
2021/07/02 01:04:59;;;;;;;17.08;7.78;;;15.40;99.90;;;;;;5047140;28;20021;-72
2021/07/02 01:07:24;;;;;;;16.55;7.65;;;15.40;99.90;;;;;;5047455;28;20024;-72
2021/07/02 01:09:51;;;;;;;17.73;7.68;;;15.40;99.90;;;;;;5046913;28;20478;-71
2021/07/02 01:12:16;;;;;;;19.73;6.80;;;15.50;99.90;;;;;;5045918;28;20029;-73
2021/07/02 01:14:42;;;;;;;16.02;6.72;;;15.40;99.90;;;;;;5046941;28;20029;-72
2021/07/02 01:17:08;;;;;;;16.60;8.45;;;15.40;99.90;;;;;;5046644;28;20033;-71
2021/07/02 01:19:33;;;;;;;12.73;7.28;;;15.40;99.90;;;;;;5047117;28;20097;-72
2021/07/02 01:21:59;;;;;;;16.25;8.07;;;15.40;99.90;;;;;;5046821;28;20029;-71
2021/07/02 01:24:25;;;;;;;14.00;6.88;;;15.40;99.90;;;;;;5046125;28;20026;-73
2021/07/02 01:26:52;;;;;;;14.98;7.28;;;15.40;99.90;;;;;;5047021;28;20040;-70
2021/07/02 01:29:19;;;;;;;20.77;8.45;;;15.40;99.90;;;;;;5047064;28;20040;-70
2021/07/02 01:31:45;;;;;;;14.43;8.23;;;15.40;99.90;;;;;;5046708;28;20018;-71
2021/07/02 01:34:10;;;;;;;16.30;7.72;;;15.40;99.90;;;;;;5046063;28;20028;-72
2021/07/02 01:36:36;;;;;;;12.52;5.95;;;15.40;99.90;;;;;;5045955;28;20373;-72
2021/07/02 01:39:04;;;;;;;16.08;7.57;;;15.30;99.90;;;;;;5046356;28;20393;-73
2021/07/02 01:41:29;;;;;;;19.20;7.35;;;15.40;99.90;;;;;;5046387;28;20025;-72
2021/07/02 01:43:55;;;;;;;22.13;7.97;;;15.30;99.90;;;;;;5046598;28;20067;-72
2021/07/02 01:46:21;;;;;;;15.95;8.32;;;15.30;99.90;;;;;;5046574;28;20056;-71
2021/07/02 01:48:47;;;;;;;12.60;6.65;;;15.40;99.90;;;;;;5046017;28;20657;-71
2021/07/02 01:51:12;;;;;;;17.60;7.88;;;15.40;99.90;;;;;;5046348;28;20608;-71
2021/07/02 01:53:38;;;;;;;17.02;7.97;;;15.40;99.90;;;;;;5045889;28;20038;-71
2021/07/02 01:56:05;;;;;;;19.90;8.48;;;15.50;99.90;;;;;;5046030;28;20029;-71
2021/07/02 01:58:31;;;;;;;19.10;8.65;;;15.50;99.90;;;;;;5046184;28;20041;-71
2021/07/02 02:00:56;;;;;;;16.80;8.02;;;15.50;99.90;;;;;;5046108;28;20026;-71
2021/07/02 02:03:22;;;;;;;14.45;7.80;;;15.60;99.90;;;;;;5044810;28;20132;-71
2021/07/02 02:05:48;;;;;;;18.63;9.02;;;15.60;99.90;;;;;;5046267;28;20026;-74
2021/07/02 02:08:14;;;;;;;19.20;8.15;;;15.60;99.90;;;;;;5046222;28;20048;-72
2021/07/02 02:10:40;;;;;;;20.75;7.88;;;15.60;99.90;;;;;;5046013;28;20029;-73
2021/07/02 02:13:06;;;;;;;18.38;7.65;;;15.60;99.90;;;;;;5045708;28;20033;-71
2021/07/02 02:15:31;;;;;;;18.30;7.75;;;15.60;99.90;;;;;;5045792;28;20029;-72
2021/07/02 02:17:58;;;;;;;15.13;7.80;;;15.70;99.90;;;;;;5045827;28;20089;-73
2021/07/02 02:20:23;;;;;;;17.67;9.63;;;15.60;99.90;;;;;;5045761;28;20073;-71
2021/07/02 02:22:49;;;;;;;15.57;7.63;;;15.70;99.90;;;;;;5046109;28;20048;-72
2021/07/02 02:25:14;;;;;;;13.73;7.55;;;15.70;99.90;;;;;;5045999;28;20053;-71
2021/07/02 02:27:40;;;;;;;17.10;8.18;;;15.80;99.90;;;;;;5045158;28;20037;-72
2021/07/02 02:30:07;;;;;;;21.45;8.48;;;15.80;99.90;;;;;;5043611;28;20112;-71
2021/07/02 02:32:34;;;;;;;20.33;8.77;;;15.80;99.90;;;;;;5045737;28;20018;-74
2021/07/02 02:35:00;;;;;;;17.55;8.38;;;15.80;99.90;;;;;;5045333;28;20029;-72
2021/07/02 02:37:25;;;;;;;15.13;7.78;;;15.90;99.90;;;;;;5061025;28;20059;-74
2021/07/02 02:39:51;;;;;;;21.77;9.43;;;15.90;99.90;;;;;;5045498;28;20053;-72
2021/07/02 02:42:17;;;;;;;25.70;9.02;;;15.90;99.90;;;;;;5045283;28;20045;-74
2021/07/02 02:44:42;;;;;;;26.75;8.27;;;15.90;99.90;;;;;;5045658;28;20362;-71
2021/07/02 02:47:09;;;;;;;25.85;10.10;;;15.90;99.90;;;;;;5045350;28;20544;-72
2021/07/02 02:49:34;;;;;;;21.33;8.55;;;16.00;99.90;;;;;;5045201;28;20025;-73
2021/07/02 02:52:00;;;;;;;27.10;9.57;;;16.00;99.90;;;;;;5045121;28;20087;-71
2021/07/02 02:54:25;;;;;;;24.65;10.18;;;16.00;99.90;;;;;;5044945;28;20084;-73
2021/07/02 02:57:04;;;;;;;17.50;9.25;;;16.00;99.90;;;;;;5045056;28;20097;-72
2021/07/02 02:59:30;;;;;;;17.30;9.43;;;16.10;99.90;;;;;;5044831;28;20067;-71
2021/07/02 03:01:56;;;;;;;27.35;10.65;;;16.00;99.90;;;;;;5043888;28;20029;-75
2021/07/02 03:04:22;;;;;;;23.77;10.85;;;16.00;99.90;;;;;;5044977;28;20061;-72
2021/07/02 03:06:48;;;;;;;20.90;10.05;;;16.00;99.90;;;;;;5043708;28;20030;-72
2021/07/02 03:09:13;;;;;;;32.83;9.95;;;16.10;99.90;;;;;;5044904;28;20025;-73
2021/07/02 03:11:39;;;;;;;30.33;11.27;;;16.00;99.90;;;;;;5060189;28;20071;-72
2021/07/02 03:14:04;;;;;;;29.90;10.68;;;16.10;99.90;;;;;;5045060;28;20112;-72
2021/07/02 03:16:31;;;;;;;20.17;8.23;;;16.10;99.90;;;;;;5044736;28;20033;-72
2021/07/02 03:18:57;;;;;;;25.67;10.15;;;16.10;99.90;;;;;;5044492;28;20035;-71
2021/07/02 03:21:22;;;;;;;22.30;9.60;;;16.20;99.90;;;;;;5044889;28;20108;-71
2021/07/02 03:23:48;;;;;;;36.72;10.20;;;16.10;99.90;;;;;;5044607;28;20057;-73
2021/07/02 03:26:16;;;;;;;26.85;9.20;;;16.20;99.90;;;;;;5043464;28;20048;-71
2021/07/02 03:28:42;;;;;;;21.85;9.60;;;16.20;99.90;;;;;;5044642;28;20964;-71
2021/07/02 03:31:08;;;;;;;23.85;9.60;;;16.20;99.90;;;;;;5044182;28;20033;-73
2021/07/02 03:33:33;;;;;;;27.98;10.10;;;16.20;99.90;;;;;;5044146;28;20057;-74
2021/07/02 03:35:59;;;;;;;24.95;8.88;;;16.20;99.90;;;;;;5044369;28;20025;-72
2021/07/02 03:38:25;;;;;;;22.27;9.65;;;16.20;99.90;;;;;;5059515;28;20072;-74
2021/07/02 03:40:51;;;;;;;23.67;9.57;;;16.20;99.90;;;;;;5044664;28;20036;-72
2021/07/02 03:43:17;;;;;;;18.60;8.05;;;16.20;99.90;;;;;;5044467;28;20168;-72
2021/07/02 03:45:43;;;;;;;18.05;9.15;;;16.20;99.90;;;;;;5044117;28;20055;-72
2021/07/02 03:48:08;;;;;;;25.20;10.40;;;16.20;99.90;;;;;;5044373;28;20552;-71
2021/07/02 03:50:34;;;;;;;24.77;8.70;;;16.20;99.90;;;;;;5044025;28;20025;-74
2021/07/02 03:53:00;;;;;;;28.02;8.77;;;16.20;99.90;;;;;;5044055;28;20053;-72
2021/07/02 03:55:25;;;;;;;26.15;10.88;;;16.20;99.90;;;;;;5043929;28;20071;-73
2021/07/02 03:57:51;;;;;;;22.25;9.02;;;16.30;99.90;;;;;;5044217;28;20037;-71
2021/07/02 04:00:17;;;;;;;25.45;9.63;;;16.30;99.90;;;;;;5044245;28;20029;-71
2021/07/02 04:02:43;;;;;;;22.98;9.38;;;16.30;99.90;;;;;;5044073;28;20475;-71
2021/07/02 04:05:10;;;;;;;20.35;8.35;;;16.30;99.90;;;;;;5043450;28;20021;-71
2021/07/02 04:07:35;;;;;;;21.38;9.27;;;16.20;99.90;;;;;;5043816;28;20026;-72
2021/07/02 04:10:01;;;;;;;22.40;9.40;;;16.20;99.90;;;;;;5044046;28;20041;-72
2021/07/02 04:12:29;;;;;;;13.77;7.45;;;16.20;99.90;;;;;;5046346;28;20056;-71
2021/07/02 04:14:55;;;;;;;26.85;7.47;;;16.30;99.90;;;;;;5048302;28;20465;-73
2021/07/02 04:17:21;;;;;;;25.27;8.13;;;16.30;99.90;;;;;;5048725;28;20037;-72
2021/07/02 04:19:47;;;;;;;22.85;7.97;;;16.30;99.90;;;;;;5047782;28;20056;-74
2021/07/02 04:22:12;;;;;;;21.42;8.27;;;16.30;99.90;;;;;;5048244;28;20045;-71
2021/07/02 04:24:38;;;;;;;20.15;8.85;;;16.30;99.90;;;;;;5047999;28;20029;-73
2021/07/02 04:27:04;;;;;;;21.52;7.93;;;16.30;99.90;;;;;;5047822;28;20038;-72
2021/07/02 04:29:30;;;;;;;24.75;8.00;;;16.30;99.90;;;;;;5046657;28;20029;-72
2021/07/02 04:31:56;;;;;;;22.60;7.80;;;16.30;99.90;;;;;;5046959;28;20022;-74
2021/07/02 04:34:22;;;;;;;24.17;8.57;;;16.30;99.90;;;;;;5047809;28;20120;-76
2021/07/02 04:36:48;;;;;;;24.75;8.77;;;16.30;99.90;;;;;;5046609;28;20036;-73
2021/07/02 04:39:14;;;;;;;22.52;8.50;;;16.30;99.90;;;;;;5047490;28;20029;-73
2021/07/02 04:41:40;;;;;;;24.00;8.90;;;16.30;99.90;;;;;;5047360;28;20517;-73
2021/07/02 04:44:06;;;;;;;22.50;8.43;;;16.40;99.90;;;;;;5047529;28;20053;-75
2021/07/02 04:46:32;;;;;;;24.42;8.10;;;16.30;99.90;;;;;;5047339;28;20022;-70
2021/07/02 04:48:57;;;;;;;23.23;9.25;;;16.30;99.90;;;;;;5047423;28;20057;-74
2021/07/02 04:51:23;;;;;;;18.52;8.35;;;16.30;99.90;;;;;;5047577;28;20033;-74
2021/07/02 04:53:48;;;;;;;21.65;8.15;;;16.30;99.90;;;;;;5062547;28;20056;-73
2021/07/02 04:56:14;;;;;;;25.15;8.93;;;16.30;99.90;;;;;;5062798;28;20037;-69
2021/07/02 04:58:41;;;;;;;16.35;7.38;;;16.40;99.90;;;;;;5047543;28;20029;-72
2021/07/02 05:01:07;;;;;;;15.80;7.63;;;16.30;99.90;;;;;;5047466;28;20035;-73
2021/07/02 05:03:33;;;;;;;30.58;8.90;;;16.30;99.90;;;;;;5047498;28;20069;-74
2021/07/02 05:06:01;;;;;;;17.42;7.38;;;16.30;99.90;;;;;;5062643;28;20048;-73
2021/07/02 05:08:26;;;;;;;17.50;8.27;;;16.30;99.90;;;;;;5045777;28;20029;-71
2021/07/02 05:10:52;;;;;;;18.58;7.97;;;16.30;99.90;;;;;;5046743;28;20390;-72
2021/07/02 05:13:18;;;;;;;21.52;7.88;;;16.40;99.90;;;;;;5047518;28;20052;-73
2021/07/02 05:15:43;;;;;;;16.00;8.25;;;16.40;99.90;;;;;;5062353;28;20021;-74
2021/07/02 05:18:09;;;;;;;23.05;7.57;;;16.40;99.90;;;;;;5047174;28;20033;-72
2021/07/02 05:20:34;;;;;;;27.15;8.57;;;16.40;99.90;;;;;;5046273;28;20171;-73
2021/07/02 05:23:00;;;;;;;27.25;8.38;;;16.50;99.90;;;;;;5045431;28;20033;-72
2021/07/02 05:25:26;;;;;;;17.42;7.38;;;16.50;99.90;;;;;;5047282;28;20478;-74
2021/07/02 05:27:52;;;;;;;14.65;7.53;;;16.50;99.90;;;;;;5046694;28;20028;-79
2021/07/02 05:30:18;;;;;;;15.35;7.18;;;16.30;99.90;;;;;;5045797;28;20014;-76
2021/07/02 05:32:44;;;;;;;13.25;7.32;;;16.40;99.90;;;;;;5047305;28;20060;-73
2021/07/02 05:35:10;;;;;;;14.60;6.68;;;16.40;99.90;;;;;;5041123;28;20056;-75
2021/07/02 05:37:43;;;;;;;10.88;5.90;;;16.40;99.90;;;;;;5045974;28;20401;-72
2021/07/02 05:40:11;;;;;;;13.15;7.05;;;16.40;99.90;;;;;;5046519;28;20033;-75
2021/07/02 05:42:37;;;;;;;20.73;7.25;;;16.40;99.90;;;;;;5044275;28;20160;-73
2021/07/02 05:45:03;;;;;;;18.27;6.63;;;16.40;99.90;;;;;;5061962;28;20029;-71
2021/07/02 05:47:28;;;;;;;15.23;6.97;;;16.40;99.90;;;;;;5045243;28;20047;-74
2021/07/02 05:49:54;;;;;;;16.25;6.57;;;16.30;99.90;;;;;;5045233;28;20049;-73
2021/07/02 05:52:19;;;;;;;17.67;6.07;;;16.40;99.90;;;;;;5046956;28;20021;-73
2021/07/02 05:54:48;;;;;;;15.73;7.22;;;16.40;99.90;;;;;;5061927;28;20064;-73
2021/07/02 05:57:14;;;;;;;11.05;5.97;;;16.40;99.90;;;;;;5047031;28;20030;-73
2021/07/02 05:59:39;;;;;;;16.83;6.55;;;16.40;99.90;;;;;;5045398;28;20048;-74
2021/07/02 06:02:05;;;;;;;11.85;6.30;;;16.40;99.90;;;;;;5046332;28;20048;-74
2021/07/02 06:04:31;;;;;;;12.75;6.03;;;16.40;99.90;;;;;;5046562;28;20508;-75
2021/07/02 06:06:56;;;;;;;16.27;6.57;;;16.40;99.90;;;;;;5061293;28;20064;-76
2021/07/02 06:09:22;;;;;;;16.38;6.15;;;16.40;99.90;;;;;;5044436;28;20034;-73
2021/07/02 06:11:48;;;;;;;15.13;5.97;;;16.40;99.90;;;;;;5046523;28;20044;-73
2021/07/02 06:14:13;;;;;;;29.83;6.38;;;16.40;99.90;;;;;;5046292;28;20037;-71
2021/07/02 06:16:39;;;;;;;12.60;6.28;;;16.50;99.90;;;;;;5044702;28;20018;-73
2021/07/02 06:19:04;;;;;;;16.05;4.80;;;16.50;99.90;;;;;;5052416;28;20025;-75
2021/07/02 06:21:30;;;;;;;15.80;6.65;;;16.50;99.90;;;;;;5044884;28;20051;-72
2021/07/02 06:23:55;;;;;;;15.55;5.75;;;16.50;99.90;;;;;;5046099;28;20085;-73
2021/07/02 06:26:21;;;;;;;14.05;6.07;;;16.60;99.90;;;;;;5046443;28;20047;-72
2021/07/02 06:28:47;;;;;;;15.23;6.13;;;16.60;99.90;;;;;;5046457;28;20018;-73
2021/07/02 06:31:12;;;;;;;13.93;5.25;;;16.60;99.90;;;;;;5045813;28;20034;-72
2021/07/02 06:33:41;;;;;;;10.15;4.53;;;16.60;99.90;;;;;;5046159;28;20337;-72
2021/07/02 06:36:07;;;;;;;18.45;5.95;;;16.60;99.90;;;;;;5045754;28;20045;-71
2021/07/02 06:38:32;;;;;;;11.95;6.18;;;16.60;99.90;;;;;;5045946;28;20036;-72
2021/07/02 06:40:58;;;;;;;15.73;5.43;;;16.60;99.90;;;;;;5045938;28;20049;-74
2021/07/02 06:43:24;;;;;;;12.38;6.38;;;16.60;99.90;;;;;;5045486;28;20053;-73
2021/07/02 06:45:49;;;;;;;12.38;5.38;;;16.70;99.90;;;;;;5046086;28;20031;-72
2021/07/02 06:48:15;;;;;;;10.02;5.15;;;16.70;99.90;;;;;;5044911;28;20822;-71
2021/07/02 06:50:45;;;;;;;9.80;4.65;;;16.80;99.90;;;;;;5045339;28;20025;-74
2021/07/02 06:53:12;;;;;;;11.15;5.60;;;16.80;99.90;;;;;;5044409;28;20060;-75
2021/07/02 06:55:38;;;;;;;12.18;5.47;;;16.90;99.90;;;;;;5045547;28;20458;-72
2021/07/02 06:58:04;;;;;;;16.95;6.05;;;16.90;99.90;;;;;;5045183;28;20040;-74
2021/07/02 07:00:31;;;;;;;10.45;5.28;;;16.90;99.90;;;;;;5044355;28;20022;-73
2021/07/02 07:02:57;;;;;;;10.18;4.85;;;17.00;99.90;;;;;;5045446;28;20037;-74
2021/07/02 07:05:26;;;;;;;15.15;4.10;;;17.10;99.90;;;;;;5045307;28;20087;-70
2021/07/02 07:07:52;;;;;;;10.43;5.07;;;17.10;99.90;;;;;;5046058;28;20033;-69
2021/07/02 07:10:17;;;;;;;9.30;5.10;;;17.10;99.90;;;;;;5045302;28;20029;-73
2021/07/02 07:12:43;;;;;;;11.10;5.88;;;17.10;99.90;;;;;;5044841;28;21204;-71
2021/07/02 07:15:09;;;;;;;10.25;5.47;;;17.10;99.90;;;;;;5045384;28;20374;-72
2021/07/02 07:17:35;;;;;;;22.00;7.00;;;17.10;99.90;;;;;;5045233;28;20033;-72
2021/07/02 07:20:01;;;;;;;14.35;6.78;;;17.00;99.90;;;;;;5044975;28;20029;-70
2021/07/02 07:22:26;;;;;;;13.75;6.43;;;17.10;99.90;;;;;;5045228;28;20076;-73
2021/07/02 07:24:52;;;;;;;16.20;6.10;;;17.10;99.90;;;;;;5045331;28;20052;-71
2021/07/02 07:27:17;;;;;;;13.43;7.13;;;17.20;99.90;;;;;;5044814;28;20040;-74
2021/07/02 07:29:43;;;;;;;13.27;6.57;;;17.30;99.90;;;;;;5045071;28;20037;-72
2021/07/02 07:32:09;;;;;;;19.48;6.50;;;17.30;99.90;;;;;;5044944;28;20066;-72
2021/07/02 07:35:18;;;;;;;14.20;5.55;;;17.40;99.90;;;;;;5044284;28;20385;-71
2021/07/02 07:37:25;;;;;;;11.63;5.35;;;17.50;99.90;;;;;;5040983;28;20041;-71
2021/07/02 07:39:51;;;;;;;10.07;4.82;;;17.50;99.90;;;;;;5043198;28;20033;-74
2021/07/02 07:42:17;;;;;;;11.40;4.93;;;17.60;99.90;;;;;;5028798;28;20038;-76
2021/07/02 07:44:43;;;;;;;6.47;4.00;;;17.60;99.90;;;;;;5042515;28;20398;-72
2021/07/02 07:47:09;;;;;;;11.43;5.05;;;17.80;99.90;;;;;;5043273;28;20029;-75
2021/07/02 07:49:35;;;;;;;8.40;4.28;;;17.90;99.90;;;;;;5042601;28;20032;-71
2021/07/02 07:52:11;;;;;;;13.48;4.43;;;18.00;99.90;;;;;;5043645;28;20443;-75
2021/07/02 07:54:41;;;;;;;10.20;4.38;;;18.00;99.90;;;;;;5043551;28;20049;-73
2021/07/02 07:57:07;;;;;;;11.77;5.13;;;18.10;99.90;;;;;;5043891;28;20026;-75
2021/07/02 07:59:38;;;;;;;10.65;4.65;;;18.00;99.90;;;;;;5043305;28;20401;-71
2021/07/02 08:02:04;;;;;;;10.73;4.13;;;18.10;99.90;;;;;;5043556;28;20071;-71
2021/07/02 08:04:34;;;;;;;7.95;4.10;;;18.10;99.90;;;;;;5043572;28;20081;-74
2021/07/02 08:07:00;;;;;;;8.27;4.05;;;18.20;99.90;;;;;;5043416;28;20030;-72
2021/07/02 08:09:26;;;;;;;12.38;3.80;;;18.20;99.90;;;;;;5043614;28;20423;-71
2021/07/02 08:11:52;;;;;;;9.23;4.13;;;18.30;99.90;;;;;;5043820;28;20508;-72
2021/07/02 08:14:19;;;;;;;17.58;4.25;;;18.30;99.90;;;;;;5042108;28;20032;-72
2021/07/02 08:16:44;;;;;;;8.70;3.38;;;18.30;99.90;;;;;;5043766;28;20037;-71
2021/07/02 08:19:10;;;;;;;9.05;3.45;;;18.40;99.90;;;;;;5043697;28;20037;-71
2021/07/02 08:21:36;;;;;;;8.77;4.22;;;18.40;99.90;;;;;;5041812;28;20135;-75
2021/07/02 08:24:02;;;;;;;5.82;3.20;;;18.50;99.90;;;;;;5046498;28;20034;-75
2021/07/02 08:26:27;;;;;;;9.95;3.28;;;18.60;99.90;;;;;;5043266;28;20033;-72
2021/07/02 08:31:37;;;;;;;6.63;3.80;;;18.70;99.90;;;;;;5042762;28;20164;-72
2021/07/02 08:34:03;;;;;;;7.88;3.75;;;18.70;99.90;;;;;;5043451;28;20029;-70
2021/07/02 08:36:29;;;;;;;9.00;3.65;;;18.80;99.90;;;;;;5043163;28;20037;-73
2021/07/02 08:38:55;;;;;;;9.00;4.47;;;18.90;99.90;;;;;;5043474;28;20072;-71
2021/07/02 08:41:20;;;;;;;7.55;3.60;;;18.90;99.90;;;;;;5042586;28;20056;-74
2021/07/02 08:43:47;;;;;;;11.35;3.45;;;18.90;99.90;;;;;;5041762;28;20038;-71
2021/07/02 08:46:15;;;;;;;8.32;3.45;;;18.90;99.90;;;;;;5043729;28;20036;-72
2021/07/02 08:48:44;;;;;;;6.18;3.35;;;18.90;99.90;;;;;;5043274;28;20029;-69
2021/07/02 08:51:10;;;;;;;6.72;3.47;;;19.00;99.90;;;;;;5043172;28;20036;-71
2021/07/02 08:53:36;;;;;;;6.68;3.17;;;18.90;99.90;;;;;;5043045;28;20132;-71
2021/07/02 08:56:03;;;;;;;9.30;4.53;;;18.90;99.90;;;;;;5042247;28;20072;-70
2021/07/02 08:58:31;;;;;;;11.75;4.45;;;19.00;99.90;;;;;;5058533;28;20057;-69
2021/07/02 09:00:58;;;;;;;10.05;3.75;;;18.90;99.90;;;;;;5045949;28;20029;-73
2021/07/02 09:03:37;;;;;;;8.43;3.92;;;18.90;99.90;;;;;;5046576;28;20037;-71
2021/07/02 09:06:08;;;;;;;16.88;3.95;;;18.80;99.90;;;;;;5047119;28;20025;-72
2021/07/02 09:08:35;;;;;;;10.40;3.92;;;18.70;99.90;;;;;;5046832;28;20029;-73
2021/07/02 09:11:01;;;;;;;6.55;3.92;;;18.60;99.90;;;;;;5045087;28;20026;-71
2021/07/02 09:13:40;;;;;;;13.25;4.63;;;18.60;99.90;;;;;;5046879;28;20056;-70
2021/07/02 09:16:21;;;;;;;8.13;3.88;;;18.60;99.90;;;;;;5054820;28;20033;-70
2021/07/02 09:18:46;;;;;;;12.43;4.43;;;18.60;99.90;;;;;;5045826;28;20450;-70
2021/07/02 09:21:29;;;;;;;11.07;3.80;;;18.70;99.90;;;;;;5045940;28;20049;-69
2021/07/02 09:23:58;;;;;;;11.50;3.85;;;18.80;99.90;;;;;;5046371;28;20037;-69
2021/07/02 09:26:43;;;;;;;17.35;4.35;;;19.00;99.90;;;;;;5046492;28;20037;-71
2021/07/02 09:29:21;;;;;;;7.72;3.92;;;19.10;99.90;;;;;;5054005;28;20033;-72
2021/07/02 09:31:59;;;;;;;9.90;4.22;;;19.20;99.90;;;;;;5045986;28;20116;-70
2021/07/02 09:34:51;;;;;;;8.02;4.32;;;19.30;99.90;;;;;;5043202;28;20068;-72
2021/07/02 09:37:21;;;;;;;7.78;3.50;;;19.20;99.90;;;;;;5046196;28;20504;-70
2021/07/02 09:39:46;;;;;;;7.82;4.15;;;19.10;99.90;;;;;;5045828;28;20556;-73
2021/07/02 09:42:22;;;;;;;9.30;3.60;;;19.00;99.90;;;;;;5045439;28;20080;-72
2021/07/02 09:45:17;;;;;;;14.52;4.30;;;18.90;99.90;;;;;;5046024;28;20043;-73
2021/07/02 09:47:45;;;;;;;12.98;4.13;;;18.70;99.90;;;;;;5044859;28;20033;-73
2021/07/02 09:50:20;;;;;;;8.40;3.67;;;18.60;99.90;;;;;;5046088;28;20064;-70
2021/07/02 09:52:49;;;;;;;10.90;3.95;;;18.50;99.90;;;;;;5044088;28;20053;-72
2021/07/02 09:55:17;;;;;;;9.77;4.35;;;18.50;99.90;;;;;;5024643;28;20046;-70
2021/07/02 09:57:43;;;;;;;12.40;5.25;;;18.50;99.90;;;;;;5026151;28;20160;-71
2021/07/02 10:00:16;;;;;;;10.65;3.92;;;18.40;99.90;;;;;;5024341;28;20057;-75
2021/07/02 10:02:59;;;;;;;7.07;4.43;;;18.40;99.90;;;;;;5024489;28;20045;-74
2021/07/02 10:05:26;;;;;;;12.40;3.47;;;18.30;99.90;;;;;;5026169;28;20367;-74
2021/07/02 10:07:56;;;;;;;7.97;3.33;;;18.30;99.90;;;;;;5040875;28;20034;-71
2021/07/02 10:10:24;;;;;;;14.65;3.80;;;18.40;99.90;;;;;;5025692;28;20056;-69
2021/07/02 10:12:50;;;;;;;8.10;4.70;;;18.50;99.90;;;;;;5024756;28;20018;-72
2021/07/02 10:15:16;;;;;;;14.00;5.05;;;18.80;99.90;;;;;;5025376;28;20034;-72
2021/07/02 10:17:42;;;;;;;13.30;5.10;;;18.90;99.90;;;;;;5027290;28;20424;-73
2021/07/02 10:20:09;;;;;;;11.32;5.47;;;18.90;99.90;;;;;;5042224;28;20025;-71
2021/07/02 10:22:35;;;;;;;11.05;4.28;;;19.00;99.90;;;;;;5042267;28;20025;-73
2021/07/02 10:25:02;;;;;;;5.95;3.80;;;19.20;99.90;;;;;;5029343;28;20049;-73
2021/07/02 10:27:29;;;;;;;9.45;4.60;;;19.30;99.90;;;;;;5044130;28;20470;-72
2021/07/02 10:29:57;;;;;;;10.10;4.38;;;19.50;99.90;;;;;;5044104;28;20489;-72
2021/07/02 10:32:24;;;;;;;10.27;4.28;;;19.60;99.90;;;;;;5044560;28;20030;-74
2021/07/02 10:34:51;;;;;;;6.90;4.18;;;19.80;99.90;;;;;;5044071;28;20033;-73
2021/07/02 10:37:17;;;;;;;6.13;3.60;;;19.90;99.90;;;;;;5044610;28;20120;-69
2021/07/02 10:39:45;;;;;;;8.73;4.18;;;20.00;99.90;;;;;;5044389;28;20032;-72
2021/07/02 10:42:13;;;;;;;8.45;4.13;;;20.10;99.90;;;;;;5043785;28;20141;-70
2021/07/02 10:44:58;;;;;;;9.75;3.35;;;20.10;99.90;;;;;;5044014;28;20527;-74
2021/07/02 10:47:25;;;;;;;10.95;3.38;;;20.10;99.90;;;;;;5044164;28;20026;-71
2021/07/02 10:49:55;;;;;;;12.05;3.78;;;20.10;99.90;;;;;;5043937;28;20029;-72
2021/07/02 10:52:27;;;;;;;10.48;4.72;;;20.10;99.90;;;;;;5041992;28;20526;-70
2021/07/02 10:54:55;;;;;;;10.52;4.05;;;20.00;99.90;;;;;;5042007;28;20076;-73
2021/07/02 10:57:23;;;;;;;15.88;3.65;;;20.00;99.90;;;;;;5044100;28;20075;-74
2021/07/02 10:59:50;;;;;;;5.75;3.35;;;20.00;99.90;;;;;;5042540;28;20393;-71
2021/07/02 11:02:24;;;;;;;7.57;3.67;;;19.90;99.90;;;;;;5043820;28;20041;-72
2021/07/02 11:04:58;;;;;;;7.50;4.28;;;19.90;99.90;;;;;;5043989;28;20025;-74
2021/07/02 11:07:30;;;;;;;7.45;3.60;;;19.90;99.90;;;;;;5043831;28;20025;-72
2021/07/02 11:09:58;;;;;;;7.30;3.53;;;19.90;99.90;;;;;;5043383;28;20064;-73
2021/07/02 11:12:24;;;;;;;8.45;3.53;;;19.90;99.90;;;;;;5042366;28;20029;-71
2021/07/02 11:14:53;;;;;;;5.65;3.45;;;19.90;99.90;;;;;;5043686;28;20051;-72
2021/07/02 11:17:39;;;;;;;7.97;3.50;;;20.00;99.90;;;;;;5043793;28;20025;-71
2021/07/02 11:20:07;;;;;;;5.57;3.42;;;20.00;99.90;;;;;;5043574;28;20041;-71
2021/07/02 11:22:41;;;;;;;8.88;3.88;;;20.00;99.90;;;;;;5040562;28;20034;-70
2021/07/02 11:25:19;;;;;;;7.45;3.53;;;20.10;99.90;;;;;;5042325;28;20443;-72
2021/07/02 11:30:29;;;;;;;8.95;3.90;;;20.20;99.90;;;;;;5043149;28;20401;-71
2021/07/02 11:32:57;;;;;;;7.05;3.53;;;20.20;99.90;;;;;;5042868;28;20025;-74
2021/07/02 11:35:31;;;;;;;12.82;4.13;;;20.30;99.90;;;;;;5041885;28;20100;-74
2021/07/02 11:38:06;;;;;;;4.85;2.83;;;20.40;99.90;;;;;;5043034;28;20025;-73
2021/07/02 11:40:59;;;;;;;7.97;3.75;;;20.40;99.90;;;;;;5044126;28;20025;-73
2021/07/02 11:43:41;;;;;;;6.25;3.45;;;20.50;99.90;;;;;;5043595;28;20044;-74
2021/07/02 11:46:10;;;;;;;5.32;3.10;;;20.60;99.90;;;;;;5043796;28;20042;-75
2021/07/02 11:48:38;;;;;;;7.95;3.55;;;20.60;99.90;;;;;;5043824;28;20056;-75
2021/07/02 11:51:08;;;;;;;5.85;3.03;;;20.60;99.90;;;;;;5042216;28;20093;-71
2021/07/02 11:53:43;;;;;;;5.93;3.58;;;20.60;99.90;;;;;;5042974;28;20049;-74
2021/07/02 11:56:12;;;;;;;8.32;3.72;;;20.60;99.90;;;;;;5043154;28;20033;-76
2021/07/02 11:58:45;;;;;;;9.73;3.30;;;20.60;99.90;;;;;;5043224;28;20568;-73
2021/07/02 12:01:13;;;;;;;6.00;2.90;;;20.60;99.90;;;;;;5042370;28;20034;-72
2021/07/02 12:03:46;;;;;;;9.63;3.42;;;20.60;99.90;;;;;;5041866;28;20055;-71
2021/07/02 12:06:23;;;;;;;7.50;3.30;;;20.60;99.90;;;;;;5043342;28;20032;-76
2021/07/02 12:08:52;;;;;;;3.83;2.50;;;20.60;99.90;;;;;;5043722;28;20025;-74
2021/07/02 12:11:26;;;;;;;4.03;2.88;;;20.50;99.90;;;;;;5043274;28;20017;-75
2021/07/02 12:13:52;;;;;;;5.85;3.40;;;20.40;99.90;;;;;;5043781;28;20045;-75
2021/07/02 12:16:19;;;;;;;5.05;3.40;;;20.40;99.90;;;;;;5043253;28;20041;-73
2021/07/02 12:18:53;;;;;;;19.65;3.58;;;20.40;99.90;;;;;;5043368;28;20072;-73
2021/07/02 12:21:20;;;;;;;6.38;3.25;;;20.40;99.90;;;;;;5043787;28;20378;-77
2021/07/02 12:23:46;;;;;;;11.32;3.55;;;20.40;99.90;;;;;;5041835;28;20095;-71
2021/07/02 12:26:23;;;;;;;6.70;3.42;;;20.40;99.90;;;;;;5043029;28;20037;-72
2021/07/02 12:29:00;;;;;;;7.15;3.35;;;20.60;99.90;;;;;;5043220;28;20429;-73
2021/07/02 12:31:34;;;;;;;5.45;3.35;;;20.70;99.90;;;;;;5042677;28;20119;-72
2021/07/02 12:34:01;;;;;;;5.95;3.42;;;20.80;99.90;;;;;;5045992;28;20097;-72
2021/07/02 12:36:28;;;;;;;5.97;2.58;;;21.00;99.90;;;;;;5046534;28;20028;-73
2021/07/02 12:38:57;;;;;;;6.80;3.10;;;21.20;99.90;;;;;;5035517;28;20028;-70
2021/07/02 12:41:23;;;;;;;9.05;3.47;;;21.30;99.90;;;;;;5046714;28;20034;-68
2021/07/02 12:43:49;;;;;;;8.65;3.95;;;21.40;99.90;;;;;;5046841;28;20045;-72
2021/07/02 12:46:16;;;;;;;10.02;3.50;;;21.40;99.90;;;;;;5045973;28;20038;-73